Station: Macquarie Island  

  Atmospheric Gas Attenuation - ITU Rec 676-11   ----------------- dB/100km -----------------
Date Time Temp RH % AH g/m3 Dew Point Wind Direction Speed kph Gust kph Barometer mB Rainfall Since 9am 24GHz 47GHz 76GHz 122GHz 134GHz 241GHz
10/05 20:10 6 92 6.68 4.8 43 50 1001.9 1.6 15.8 24.5 35.2 92.3 80.9 276.3
10/05 20:00 6 91 6.61 4.6 48 56 1001.9 1.6 15.7 24.4 34.9 91.5 79.9 273.0
10/05 19:50 5.9 90 6.49 4.4 57 67 1002 1.6 15.4 24.3 34.5 90.3 78.4 267.7
10/05 19:40 5.8 90 6.45 4.3 56 63 1002 1.6 15.3 24.2 34.3 90.0 78.0 266.1
10/05 19:30 5.7 90 6.41 4.2 54 65 1002.1 1.6 15.2 24.2 34.2 89.7 77.6 264.6
10/05 19:20 5.6 90 6.37 4.1 50 61 1002 1.6 15.2 24.1 34.1 89.3 77.1 263.0
10/05 19:10 5.7 89 6.34 4 46 54 1002 1.6 15.1 24.1 33.9 88.9 76.6 261.3
10/05 19:00 5.5 89 6.25 3.8 52 61 1001.9 1.6 14.9 24.0 33.7 88.1 75.6 257.7
10/05 18:50 5.4 89 6.21 3.7 46 52 1002 1.6 14.8 23.9 33.5 87.8 75.2 256.2
10/05 18:40 5.2 88 6.06 3.4 44 56 1002.1 1.6 14.5 23.7 33.0 86.4 73.4 249.8
10/05 18:30 5.1 87 5.96 3.1 52 57 1002.3 1.6 14.3 23.6 32.7 85.5 72.1 245.5
10/05 18:20 5 86 5.85 2.9 46 57 1002.4 1.6 14.1 23.5 32.3 84.4 70.8 240.7
10/05 18:10 5 83 5.64 2.4 52 63 1002.3 1.6 13.6 23.1 31.4 82.2 68.0 231.0
10/05 18:00 5 81 5.51 2 48 54 1002.4 1.6 13.3 22.9 30.9 80.8 66.3 225.0
10/05 17:50 4.9 82 5.54 2.1 46 54 1002.4 1.6 13.4 23.0 31.1 81.2 66.8 226.7
10/05 17:40 4.8 80 5.37 1.6 54 61 1002.4 1.6 13.0 22.7 30.4 79.5 64.7 219.2
10/05 17:30 4.7 81 5.4 1.7 50 54 1002.3 1.6 13.1 22.8 30.6 79.9 65.1 220.8
10/05 17:20 4.6 81 5.36 1.6 43 50 1002.3 1.6 13.0 22.8 30.5 79.6 64.7 219.2
10/05 17:10 4.5 78 5.13 1 50 56 1002.4 1.6 12.5 22.4 29.6 77.3 61.8 209.0
10/05 17:00 4.5 75 4.93 0.5 54 59 1002.4 1.6 12.1 22.1 28.8 75.2 59.2 200.0
10/05 16:50 4.3 73 4.74 -0.1 50 57 1002.4 1.6 11.7 21.9 28.2 73.4 56.9 192.0
10/05 16:40 4.1 80 5.12 1 50 56 1002.5 1.6 12.5 22.5 29.7 77.6 62.0 209.7
10/05 16:30 4.1 79 5.06 0.8 46 54 1002.6 1.6 12.4 22.4 29.5 77.0 61.2 206.9
10/05 16:20 3.7 81 5.05 0.7 52 59 1002.5 1.6 12.4 22.5 29.6 77.3 61.4 207.5
10/05 16:10 3.5 82 5.05 0.7 46 54 1002.6 1.6 12.4 22.6 29.7 77.5 61.5 208.1
10/05 16:00 3.4 83 5.07 0.8 52 59 1002.6 1.6 12.4 22.6 29.8 77.8 61.9 209.2
10/05 15:50 3.5 85 5.23 1.2 46 56 1002.6 1.6 12.8 22.9 30.4 79.4 63.9 216.3
10/05 15:40 3.5 84 5.17 1.1 48 56 1002.5 1.6 12.6 22.8 30.1 78.7 63.1 213.6
10/05 15:30 4 78 4.96 0.5 52 57 1002.4 1.6 12.2 22.3 29.1 76.0 60.0 202.6
10/05 15:20 4.1 76 4.87 0.3 46 54 1002.4 1.6 12.0 22.1 28.7 75.0 58.7 198.3
10/05 15:10 4 74 4.71 -0.2 44 52 1002.4 1.6 11.6 21.9 28.2 73.4 56.8 191.3
10/05 15:00 4.1 71 4.55 -0.7 46 54 1002.3 1.6 11.3 21.6 27.5 71.7 54.7 183.9
10/05 14:50 4 66 4.2 -1.8 46 57 1002.3 1.6 10.5 21.1 26.2 68.2 50.3 168.7
10/05 14:40 4 61 3.88 -2.8 46 57 1002.2 1.6 9.8 20.6 25.0 65.0 46.4 154.7
10/05 14:30 3.9 62 3.92 -2.7 50 69 1002.1 1.6 9.9 20.7 25.2 65.5 46.9 156.7
10/05 14:20 3.6 66 4.09 -2.1 50 65 1002.1 1.6 10.3 21.0 25.9 67.4 49.2 164.7
10/05 14:10 3.4 74 4.52 -0.8 48 56 1002 1.6 11.2 21.7 27.6 72.0 54.7 184.2
10/05 14:00 3.1 75 4.49 -0.9 35 44 1002 1.6 11.2 21.8 27.6 71.9 54.6 183.5
10/05 13:50 3.5 74 4.55 -0.7 46 50 1002.1 1.6 11.3 21.8 27.7 72.2 55.1 185.3
10/05 13:40 3.5 65 4 -2.4 41 54 1001.9 1.6 10.1 20.9 25.6 66.6 48.1 160.9
10/05 13:30 3.4 63 3.85 -3 46 56 1001.6 1.6 9.8 20.7 25.1 65.1 46.3 154.5
10/05 13:20 3.4 62 3.79 -3.2 37 48 1001.6 1.6 9.7 20.6 24.8 64.5 45.6 151.9
10/05 13:10 3.4 61 3.73 -3.4 30 41 1001.5 1.6 9.5 20.5 24.6 63.9 44.8 149.3
10/05 13:00 3.3 62 3.76 -3.3 41 48 1001.5 1.6 9.6 20.6 24.7 64.3 45.3 150.8
10/05 12:50 3.1 62 3.71 -3.5 43 52 1001.5 1.6 9.5 20.6 24.6 64.0 44.7 149.0
10/05 12:40 3 69 4.11 -2.1 43 52 1001.6 1.6 10.4 21.2 26.2 68.1 49.8 166.7
10/05 12:30 2.8 64 3.76 -3.3 35 46 1001.4 1.6 9.6 20.7 24.9 64.7 45.5 151.7
10/05 12:20 2.8 62 3.64 -3.7 46 57 1001.3 1.6 9.4 20.5 24.4 63.5 44.0 146.5
10/05 12:10 2.7 63 3.67 -3.6 24 32 1001.3 1.6 9.4 20.6 24.6 63.9 44.5 148.0
10/05 12:00 2.6 61 3.53 -4.1 22 39 1001.4 1.6 9.1 20.4 24.1 62.6 42.8 142.1
10/05 11:50 2.6 61 3.53 -4.1 28 39 1001.3 1.6 9.1 20.4 24.1 62.6 42.8 142.1
10/05 11:40 2.5 60 3.45 -4.5 30 35 1001.1 1.6 9.0 20.3 23.8 61.8 41.9 138.8
10/05 11:30 2.5 61 3.51 -4.2 39 52 1001 1.6 9.1 20.4 24.0 62.4 42.6 141.3
10/05 11:20 2.6 59 3.42 -4.6 33 50 1000.9 1.6 8.9 20.2 23.7 61.4 41.4 137.3
10/05 11:10 2.5 59 3.39 -4.7 46 63 1000.6 1.6 8.8 20.2 23.6 61.2 41.1 136.1
10/05 11:00 2.5 57 3.28 -5.1 37 54 1000.6 1.6 8.6 20.0 23.2 60.1 39.8 131.4
10/05 10:50 2.3 58 3.29 -5.1 26 32 1000.7 1.4 8.6 20.1 23.3 60.4 40.0 132.2
10/05 10:40 2.3 56 3.18 -5.6 39 46 1000.5 1.2 8.4 19.9 22.9 59.3 38.7 127.4
10/05 10:30 2.2 56 3.16 -5.6 26 50 1000.6 0.8 8.3 19.9 22.8 59.2 38.5 126.7
10/05 10:20 2 58 3.23 -5.4 39 59 1000.6 0.6 8.5 20.1 23.1 60.0 39.4 130.1
10/05 10:10 1.7 65 3.54 -4.2 39 56 1000.5 0.2 9.2 20.6 24.4 63.3 43.4 144.0
10/05 10:00 1.4 71 3.79 -3.3 30 44 1000.5 0 9.7 21.0 25.4 66.1 46.7 155.6
10/05 09:50 1.4 68 3.63 -3.8 24 35 1000.3 0 9.4 20.8 24.8 64.5 44.7 148.5
10/05 09:40 1.1 69 3.61 -3.9 20 30 1000.1 0 9.3 20.8 24.8 64.5 44.6 148.1
10/05 09:30 1.6 63 3.41 -4.7 26 41 1000.1 0 8.9 20.4 23.9 62.1 41.8 138.5
10/05 09:20 1.2 67 3.53 -4.2 20 30 999.8 0 9.2 20.7 24.5 63.6 43.5 144.4
10/05 09:10 0.9 75 3.87 -3 20 24 999.7 0 9.9 21.2 25.8 67.3 48.0 160.1
10/05 09:00 1 73 3.79 -3.3 26 32 999.7 0 9.7 21.1 25.5 66.4 46.9 156.3
10/05 08:50 0.7 74 3.77 -3.4 19 24 999.4 0.4 9.7 21.1 25.5 66.4 46.8 155.9
10/05 08:40 0.5 74 3.72 -3.6 13 20 999 0.4 9.6 21.1 25.4 66.0 46.3 154.0
10/05 08:30 0.4 75 3.74 -3.5 28 59 999.1 0.4 9.6 21.1 25.5 66.3 46.6 155.1
10/05 08:20 0.3 75 3.71 -3.6 22 28 999.1 0.4 9.6 21.1 25.4 66.1 46.3 154.0
10/05 08:10 0.4 73 3.64 -3.9 28 37 999.1 0.4 9.4 21.0 25.1 65.3 45.3 150.6
10/05 08:00 0.8 68 3.49 -4.4 28 54 998.7 0.4 9.1 20.6 24.4 63.4 43.2 143.2
10/05 07:50 0.3 69 3.42 -4.7 22 26 998.5 0.4 9.0 20.6 24.3 63.1 42.6 141.0
10/05 07:40 0.5 75 3.77 -3.4 26 39 998.3 0.4 9.7 21.1 25.5 66.5 46.9 156.2
10/05 07:30 -0.3 76 3.61 -4 26 50 998.4 0.4 9.4 21.1 25.2 65.5 45.3 150.5
10/05 07:20 0.1 74 3.62 -4 28 41 998.3 0.4 9.4 21.0 25.1 65.3 45.2 150.2
10/05 07:10 0.4 67 3.34 -5 22 33 997.9 0.4 8.8 20.5 23.9 62.1 41.5 137.2
10/05 07:00 0.7 59 3 -6.4 22 39 997.5 0.4 8.0 19.9 22.5 58.5 37.1 121.8
10/05 06:50 0.6 58 2.93 -6.7 22 26 997.4 0.4 7.9 19.8 22.3 57.8 36.3 119.0
10/05 06:40 0.2 69 3.39 -4.8 39 54 997.3 0.4 8.9 20.6 24.1 62.8 42.2 139.7
10/05 06:30 0.4 74 3.69 -3.7 28 46 996.9 0.4 9.5 21.0 25.2 65.6 45.9 152.6
10/05 06:20 0.5 71 3.57 -4.1 37 44 996.6 0.4 9.3 20.8 24.7 64.3 44.3 147.0
10/05 06:10 0.8 58 2.97 -6.5 30 43 996.4 0.4 8.0 19.8 22.4 58.0 36.7 120.3
10/05 06:00 0.6 53 2.68 -7.9 32 65 996.2 0.4 7.3 19.4 21.4 55.3 33.2 108.2
10/05 05:50 0.5 56 2.81 -7.2 24 35 996 0.4 7.6 19.6 21.9 56.6 34.8 113.8
10/05 05:40 -0.4 72 3.4 -4.8 22 28 995.7 0.4 8.9 20.7 24.3 63.2 42.6 140.9
10/05 05:30 0.1 65 3.18 -5.7 30 57 995.6 0.4 8.4 20.2 23.3 60.6 39.6 130.4
10/05 05:20 -0.2 67 3.21 -5.6 41 54 995.4 0.4 8.5 20.3 23.5 61.1 40.1 132.2
10/05 05:10 -0.4 75 3.54 -4.3 35 63 995.2 0.4 9.2 20.9 24.8 64.6 44.3 147.1
10/05 05:00 -0.1 76 3.66 -3.8 35 61 995 0.4 9.5 21.0 25.2 65.6 45.7 151.9
10/05 04:50 -0.2 71 3.4 -4.8 32 41 994.7 0.4 8.9 20.6 24.2 63.0 42.4 140.5
10/05 04:40 -0.1 67 3.23 -5.5 32 43 994.6 0.4 8.5 20.3 23.5 61.2 40.2 132.8
10/05 04:30 0.5 60 3.01 -6.3 35 65 994.4 0.4 8.1 19.8 22.5 58.5 37.2 122.2
10/05 04:20 0.3 60 2.97 -6.5 43 56 994 0.4 8.0 19.8 22.4 58.2 36.8 120.8
10/05 04:10 -0.5 69 3.23 -5.5 43 52 994.1 0.4 8.6 20.4 23.6 61.4 40.4 133.4
10/05 04:00 -0.2 70 3.35 -5 41 74 994 0.4 8.8 20.5 24.0 62.4 41.8 138.2
10/05 03:50 -0.5 67 3.14 -5.9 43 74 993.5 0.4 8.4 20.2 23.3 60.5 39.3 129.3
10/05 03:40 -0.6 81 3.77 -3.4 44 63 993.1 0.4 9.7 21.2 25.7 67.0 47.3 157.6

Last Refresh: 10-May-2026 19:44:09

Bureau of Meteorology